Time;durP1;ratioP1;P1;durP2;ratioP2;P2;SDS_P1;SDS_P2;PMS_P1;PMS_P2;Temp;Humidity;BMP_temperature;BMP_pressure;BME280_temperature;BME280_humidity;BME280_pressure;Samples;Min_cycle;Max_cycle;Signal;HPM_P1;HPM_P2
2022/06/28 00:00:27;;;;;;;1.77;1.08;;;18.10;99.90;;;;;;5113708;28;20077;-66
2022/06/28 00:02:53;;;;;;;1.58;1.10;;;18.00;99.90;;;;;;5113529;28;20559;-66
2022/06/28 00:05:19;;;;;;;3.03;1.42;;;18.00;99.90;;;;;;5113319;28;20055;-66
2022/06/28 00:07:45;;;;;;;1.20;1.10;;;18.00;99.90;;;;;;5113374;28;20051;-66
2022/06/28 00:10:12;;;;;;;1.50;1.13;;;17.90;99.90;;;;;;5113405;28;20027;-66
2022/06/28 00:12:38;;;;;;;3.28;1.20;;;17.90;99.90;;;;;;5113317;28;20047;-65
2022/06/28 00:17:51;;;;;;;3.90;1.20;;;18.00;99.90;;;;;;5113597;28;20127;-66
2022/06/28 00:20:16;;;;;;;3.00;1.27;;;18.00;99.90;;;;;;5111850;28;20077;-66
2022/06/28 00:22:42;;;;;;;2.65;1.38;;;17.90;99.90;;;;;;5111763;28;20126;-66
2022/06/28 00:25:08;;;;;;;1.50;1.20;;;18.00;99.90;;;;;;5113416;28;20050;-65
2022/06/28 00:27:34;;;;;;;2.47;1.30;;;18.10;99.90;;;;;;5113325;28;20476;-65
2022/06/28 00:29:59;;;;;;;1.55;1.30;;;18.00;99.90;;;;;;5113323;28;20034;-65
2022/06/28 00:32:26;;;;;;;1.50;1.20;;;17.90;99.90;;;;;;5113229;28;20023;-65
2022/06/28 00:34:51;;;;;;;2.30;1.38;;;17.90;99.90;;;;;;5113014;28;20020;-65
2022/06/28 00:37:17;;;;;;;1.83;1.25;;;17.90;99.90;;;;;;5113555;28;20039;-65
2022/06/28 00:39:43;;;;;;;2.53;1.30;;;17.80;99.90;;;;;;5112998;28;20027;-65
2022/06/28 00:42:09;;;;;;;2.13;1.63;;;17.90;99.90;;;;;;5113084;28;20059;-65
2022/06/28 00:44:35;;;;;;;;;;;18.00;99.90;;;;;;5113331;28;20050;-65
2022/06/28 00:47:02;;;;;;;2.05;1.20;;;18.00;99.90;;;;;;5112998;28;19904;-65
2022/06/28 00:49:27;;;;;;;;;;;18.00;99.90;;;;;;5112027;28;20500;-65
2022/06/28 00:51:56;;;;;;;5.50;1.60;;;17.80;99.90;;;;;;5112710;28;19904;-65
2022/06/28 00:54:22;;;;;;;2.33;1.52;;;17.70;99.90;;;;;;5112964;28;20434;-65
2022/06/28 00:56:48;;;;;;;2.90;1.40;;;17.70;99.90;;;;;;5115306;28;20027;-64
2022/06/28 00:59:14;;;;;;;3.13;1.48;;;17.60;99.90;;;;;;5116803;28;20031;-66
2022/06/28 01:01:39;;;;;;;3.92;1.60;;;17.50;99.90;;;;;;5116408;28;20038;-66
2022/06/28 01:04:05;;;;;;;3.72;1.50;;;17.50;99.90;;;;;;5116642;28;20070;-66
2022/06/28 01:06:30;;;;;;;2.50;1.50;;;17.50;99.90;;;;;;5116369;28;20032;-66
2022/06/28 01:08:56;;;;;;;1.88;1.70;;;17.50;99.90;;;;;;5116412;28;20032;-66
2022/06/28 01:11:21;;;;;;;3.28;1.23;;;17.60;99.90;;;;;;5116235;28;20361;-65
2022/06/28 01:13:48;;;;;;;2.42;1.42;;;17.60;99.90;;;;;;5116373;28;20038;-65
2022/06/28 01:16:14;;;;;;;2.35;1.38;;;17.60;99.90;;;;;;5116260;28;20077;-65
2022/06/28 01:18:40;;;;;;;4.30;1.42;;;17.50;99.90;;;;;;5116515;28;20027;-66
2022/06/28 01:21:06;;;;;;;2.28;1.25;;;17.50;99.90;;;;;;5116403;28;20027;-66
2022/06/28 01:23:32;;;;;;;3.70;1.63;;;17.40;99.90;;;;;;5116445;28;20421;-66
2022/06/28 01:25:58;;;;;;;4.43;1.63;;;17.40;99.90;;;;;;5114843;28;20032;-66
2022/06/28 01:28:25;;;;;;;3.75;1.50;;;17.40;99.90;;;;;;5115949;28;20019;-66
2022/06/28 01:30:51;;;;;;;;;;;17.40;99.90;;;;;;5116675;28;20115;-66
2022/06/28 01:33:17;;;;;;;6.78;2.28;;;17.50;99.90;;;;;;5115952;28;19951;-66
2022/06/28 01:35:42;;;;;;;6.65;1.67;;;17.60;99.90;;;;;;5116072;28;20072;-66
2022/06/28 01:38:10;;;;;;;2.20;1.42;;;17.50;99.90;;;;;;5116267;28;20028;-66
2022/06/28 01:40:36;;;;;;;3.28;1.40;;;17.40;99.90;;;;;;5115991;28;20138;-66
2022/06/28 01:43:02;;;;;;;3.95;1.83;;;17.30;99.90;;;;;;5115950;28;20465;-66
2022/06/28 01:45:28;;;;;;;;;;;17.30;99.90;;;;;;5116285;28;20074;-66
2022/06/28 01:47:54;;;;;;;6.65;2.05;;;17.20;99.90;;;;;;5125666;28;19911;-66
2022/06/28 01:50:20;;;;;;;3.53;1.25;;;17.20;99.90;;;;;;5127698;28;20027;-66
2022/06/28 01:52:45;;;;;;;3.08;1.42;;;17.20;99.90;;;;;;5127030;28;20027;-66
2022/06/28 01:55:11;;;;;;;5.13;1.63;;;17.10;99.90;;;;;;5127266;28;20031;-66
2022/06/28 01:57:38;;;;;;;4.18;1.85;;;17.10;99.90;;;;;;5131645;28;20066;-66
2022/06/28 02:00:04;;;;;;;4.07;1.65;;;17.10;99.90;;;;;;5121380;28;20019;-66
2022/06/28 02:02:30;;;;;;;3.88;1.80;;;17.10;99.90;;;;;;5116417;28;20038;-66
2022/06/28 02:04:55;;;;;;;2.47;1.60;;;17.00;99.90;;;;;;5114106;28;20118;-66
2022/06/28 02:07:21;;;;;;;4.30;1.50;;;17.00;99.90;;;;;;5114180;28;20095;-66
2022/06/28 02:09:47;;;;;;;4.30;1.63;;;17.00;99.90;;;;;;5115107;28;20293;-66
2022/06/28 02:12:12;;;;;;;3.33;1.60;;;17.00;99.90;;;;;;5115010;28;20028;-66
2022/06/28 02:14:38;;;;;;;2.33;1.48;;;17.00;99.90;;;;;;5115042;28;20265;-66
2022/06/28 02:17:03;;;;;;;3.05;2.50;;;17.00;99.90;;;;;;5114997;28;20074;-66
2022/06/28 02:19:29;;;;;;;4.03;1.95;;;17.20;99.90;;;;;;5115056;28;20372;-66
2022/06/28 02:21:55;;;;;;;5.28;1.35;;;17.10;99.90;;;;;;5114912;28;20480;-66
2022/06/28 02:24:21;;;;;;;3.08;1.83;;;17.10;99.90;;;;;;5115228;28;20494;-66
2022/06/28 02:26:46;;;;;;;2.92;1.50;;;17.10;99.90;;;;;;5115425;28;20035;-66
2022/06/28 02:29:12;;;;;;;2.90;1.42;;;17.00;99.90;;;;;;5115027;28;20031;-66
2022/06/28 02:31:37;;;;;;;3.00;1.48;;;17.00;99.90;;;;;;5113634;28;20488;-66
2022/06/28 02:34:04;;;;;;;2.33;1.70;;;17.00;99.90;;;;;;5114928;28;20480;-66
2022/06/28 02:41:43;;;;;;;2.65;1.58;;;16.90;99.90;;;;;;5114477;28;20019;-66
2022/06/28 02:44:10;;;;;;;2.05;1.60;;;16.90;99.90;;;;;;5114538;28;20430;-66
2022/06/28 02:46:36;;;;;;;2.65;1.60;;;16.80;99.90;;;;;;5114520;28;20036;-66
2022/06/28 02:49:02;;;;;;;1.95;1.70;;;16.80;99.90;;;;;;5114937;28;20393;-66
2022/06/28 02:51:27;;;;;;;2.38;1.55;;;16.80;99.90;;;;;;5115501;28;20043;-66
2022/06/28 02:53:53;;;;;;;2.03;1.50;;;16.80;99.90;;;;;;5114939;28;20035;-66
2022/06/28 02:56:19;;;;;;;2.97;1.88;;;16.80;99.90;;;;;;5114262;28;20281;-65
2022/06/28 02:58:45;;;;;;;3.35;1.70;;;16.80;99.90;;;;;;5114302;28;20030;-65
2022/06/28 03:01:11;;;;;;;2.58;1.65;;;16.90;99.90;;;;;;5114118;28;20028;-65
2022/06/28 03:03:36;;;;;;;3.42;1.50;;;16.90;99.90;;;;;;5114266;28;20086;-65
2022/06/28 03:06:03;;;;;;;2.15;1.70;;;16.80;99.90;;;;;;5114532;28;20020;-66
2022/06/28 03:08:28;;;;;;;;;;;16.80;99.90;;;;;;5114663;28;20041;-66
2022/06/28 03:10:54;;;;;;;2.88;1.95;;;16.80;99.90;;;;;;5114606;28;20375;-65
2022/06/28 03:13:19;;;;;;;2.28;1.80;;;16.80;99.90;;;;;;5114159;28;20098;-65
2022/06/28 03:15:45;;;;;;;1.73;1.50;;;16.70;99.90;;;;;;5113854;28;20484;-65
2022/06/28 03:18:12;;;;;;;4.18;1.60;;;16.80;99.90;;;;;;5113924;28;20015;-66
2022/06/28 03:20:37;;;;;;;3.88;1.85;;;16.80;99.90;;;;;;5113963;28;20088;-67
2022/06/28 03:23:03;;;;;;;2.90;1.70;;;16.70;99.90;;;;;;5114021;28;20476;-65
2022/06/28 03:25:28;;;;;;;5.63;3.50;;;16.70;99.90;;;;;;5113822;28;20795;-65
2022/06/28 03:27:54;;;;;;;2.70;1.73;;;16.80;99.90;;;;;;5114078;28;20257;-65
2022/06/28 03:30:19;;;;;;;3.20;1.75;;;16.80;99.90;;;;;;5114462;28;20622;-66
2022/06/28 03:32:45;;;;;;;2.60;1.85;;;16.70;99.90;;;;;;5114166;28;20484;-65
2022/06/28 03:35:10;;;;;;;3.20;2.10;;;16.80;99.90;;;;;;5114095;28;20059;-65
2022/06/28 03:37:37;;;;;;;4.10;1.87;;;16.80;99.90;;;;;;5113847;28;20270;-65
2022/06/28 03:40:03;;;;;;;;;;;16.70;99.90;;;;;;5114118;28;20261;-64
2022/06/28 03:42:28;;;;;;;5.55;2.20;;;16.70;99.90;;;;;;5113878;28;19930;-65
2022/06/28 03:44:54;;;;;;;3.50;1.70;;;16.70;99.90;;;;;;5113872;28;20067;-65
2022/06/28 03:47:20;;;;;;;2.67;1.88;;;16.70;99.90;;;;;;5114113;28;20070;-65
2022/06/28 03:49:47;;;;;;;3.45;2.00;;;16.70;99.90;;;;;;5114628;28;20092;-65
2022/06/28 03:52:14;;;;;;;2.67;1.88;;;16.70;99.90;;;;;;5113911;28;20114;-66
2022/06/28 03:54:39;;;;;;;3.17;1.90;;;16.70;99.90;;;;;;5115060;28;20054;-67
2022/06/28 03:57:05;;;;;;;2.73;1.90;;;16.60;99.90;;;;;;5112722;28;20112;-66
2022/06/28 03:59:30;;;;;;;3.50;1.92;;;16.60;99.90;;;;;;5114093;28;20300;-66
2022/06/28 04:01:56;;;;;;;4.82;1.95;;;16.70;99.90;;;;;;5113776;28;20040;-66
2022/06/28 04:04:21;;;;;;;2.63;1.83;;;16.70;99.90;;;;;;5114225;28;20403;-66
2022/06/28 04:06:47;;;;;;;2.60;1.83;;;16.70;99.90;;;;;;5114547;28;20377;-66
2022/06/28 04:09:12;;;;;;;3.75;1.65;;;16.70;99.90;;;;;;5114012;28;20034;-66
2022/06/28 04:11:38;;;;;;;3.77;1.73;;;16.70;99.90;;;;;;5113907;28;20050;-66
2022/06/28 04:14:04;;;;;;;2.75;1.80;;;16.70;99.90;;;;;;5113577;28;20373;-66
2022/06/28 04:16:29;;;;;;;3.47;1.80;;;16.70;99.90;;;;;;5113597;28;20104;-66
2022/06/28 04:18:55;;;;;;;2.92;1.95;;;16.70;99.90;;;;;;5113385;28;20548;-66
2022/06/28 04:21:21;;;;;;;2.50;2.13;;;16.70;99.90;;;;;;5113802;28;20024;-66
2022/06/28 04:23:46;;;;;;;;;;;16.70;99.90;;;;;;5113843;28;20020;-64
2022/06/28 04:26:13;;;;;;;4.00;1.70;;;16.70;99.90;;;;;;5112952;28;19927;-64
2022/06/28 04:28:39;;;;;;;2.72;1.80;;;16.70;99.90;;;;;;5113549;28;20046;-64
2022/06/28 04:31:05;;;;;;;3.67;1.88;;;16.70;99.90;;;;;;5114272;28;20437;-63
2022/06/28 04:33:30;;;;;;;4.57;1.65;;;16.80;99.90;;;;;;5117095;27;20130;-63
2022/06/28 04:35:56;;;;;;;3.67;2.30;;;16.90;99.90;;;;;;5117902;28;20055;-64
2022/06/28 04:38:22;;;;;;;4.03;1.83;;;16.90;99.90;;;;;;5117121;28;20043;-63
2022/06/28 04:40:48;;;;;;;2.40;1.77;;;16.90;99.90;;;;;;5117550;28;20023;-62
2022/06/28 04:43:13;;;;;;;3.80;2.25;;;16.90;99.90;;;;;;5117153;28;20532;-61
2022/06/28 04:45:39;;;;;;;6.05;2.17;;;16.90;99.90;;;;;;5117097;28;20116;-62
2022/06/28 04:48:05;;;;;;;3.97;2.20;;;16.90;99.90;;;;;;5116958;28;20024;-61
2022/06/28 04:50:30;;;;;;;3.63;1.90;;;17.00;99.90;;;;;;5117536;28;20034;-60
2022/06/28 04:52:56;;;;;;;6.60;2.30;;;17.00;99.90;;;;;;5116971;28;20392;-61
2022/06/28 04:55:22;;;;;;;3.25;2.15;;;17.00;99.90;;;;;;5117327;28;20032;-60
2022/06/28 04:57:47;;;;;;;3.83;1.85;;;17.00;99.90;;;;;;5117069;28;20024;-63
2022/06/28 05:00:14;;;;;;;2.80;1.85;;;16.90;99.90;;;;;;5117020;28;20023;-61
2022/06/28 05:02:41;;;;;;;4.68;1.95;;;16.90;99.90;;;;;;5116288;28;20028;-63
2022/06/28 05:05:08;;;;;;;3.03;2.10;;;17.00;99.90;;;;;;5116566;28;20039;-61
2022/06/28 05:07:34;;;;;;;3.00;1.98;;;16.90;99.90;;;;;;5116516;28;20016;-60
2022/06/28 05:10:00;;;;;;;4.90;2.65;;;17.00;99.90;;;;;;5116514;28;20361;-60
2022/06/28 05:12:26;;;;;;;;;;;17.00;99.90;;;;;;5116942;28;20039;-62
2022/06/28 05:14:51;;;;;;;5.30;2.60;;;17.00;99.90;;;;;;5116336;28;19904;-61
2022/06/28 05:17:17;;;;;;;3.35;2.65;;;17.00;99.90;;;;;;5116053;28;20451;-60
2022/06/28 05:19:43;;;;;;;3.45;2.67;;;17.00;99.90;;;;;;5115974;28;20488;-60
2022/06/28 05:22:08;;;;;;;4.43;2.92;;;17.10;99.90;;;;;;5115850;28;20015;-59
2022/06/28 05:24:35;;;;;;;4.20;2.80;;;17.10;99.90;;;;;;5116302;28;20035;-61
2022/06/28 05:27:01;;;;;;;3.97;2.90;;;17.10;99.90;;;;;;5115880;28;20111;-60
2022/06/28 05:29:27;;;;;;;4.93;3.10;;;17.00;99.90;;;;;;5114515;28;20028;-58
2022/06/28 05:31:53;;;;;;;7.35;3.05;;;17.00;99.90;;;;;;5115678;28;20038;-60
2022/06/28 05:34:18;;;;;;;5.38;3.10;;;17.00;99.90;;;;;;5115480;28;20050;-61
2022/06/28 05:36:44;;;;;;;8.02;2.70;;;17.00;99.90;;;;;;5115557;28;20065;-65
2022/06/28 05:39:10;;;;;;;5.40;3.15;;;17.10;99.90;;;;;;5115725;28;20055;-65
2022/06/28 05:41:36;;;;;;;4.50;3.10;;;17.20;99.90;;;;;;5115511;28;20032;-64
2022/06/28 05:44:02;;;;;;;4.05;2.85;;;17.20;99.90;;;;;;5115393;28;20027;-64
2022/06/28 05:46:28;;;;;;;5.18;3.05;;;17.30;99.90;;;;;;5115458;28;20111;-67
2022/06/28 05:48:54;;;;;;;7.00;3.17;;;17.30;99.90;;;;;;5113866;28;20173;-67
2022/06/28 05:51:19;;;;;;;5.07;3.63;;;17.30;99.90;;;;;;5115463;28;20111;-65
2022/06/28 05:53:45;;;;;;;7.57;3.42;;;17.30;99.90;;;;;;5115256;28;20072;-66
2022/06/28 05:56:10;;;;;;;4.30;3.22;;;17.20;99.90;;;;;;5115491;28;20106;-65
2022/06/28 05:58:36;;;;;;;6.90;3.42;;;17.30;99.90;;;;;;5116849;28;20027;-65
2022/06/28 06:01:03;;;;;;;6.28;3.28;;;17.30;99.90;;;;;;5114529;28;20475;-66
2022/06/28 06:03:29;;;;;;;6.60;3.22;;;17.40;99.90;;;;;;5116802;28;20048;-66
2022/06/28 06:05:54;;;;;;;6.18;3.88;;;17.40;99.90;;;;;;5115739;28;20030;-62
2022/06/28 06:08:20;;;;;;;8.65;2.60;;;17.40;99.90;;;;;;5115254;28;20040;-65
2022/06/28 06:10:46;;;;;;;7.47;2.83;;;17.50;99.90;;;;;;5114945;28;20106;-64
2022/06/28 06:13:11;;;;;;;6.10;2.60;;;17.50;99.90;;;;;;5113718;28;20118;-66
2022/06/28 06:15:37;;;;;;;6.13;3.83;;;17.60;99.90;;;;;;5115331;28;20437;-66
2022/06/28 06:18:02;;;;;;;5.32;2.63;;;17.80;99.90;;;;;;5115074;28;20023;-65
2022/06/28 06:20:28;;;;;;;3.83;2.13;;;17.90;99.90;;;;;;5114889;28;20032;-65
2022/06/28 06:22:54;;;;;;;5.80;1.98;;;17.90;99.90;;;;;;5114890;28;20384;-64
2022/06/28 06:25:19;;;;;;;6.30;2.40;;;18.00;99.90;;;;;;5115680;28;20031;-66
2022/06/28 06:27:45;;;;;;;5.85;2.47;;;18.00;99.90;;;;;;5115713;28;20046;-66
2022/06/28 06:30:11;;;;;;;3.22;1.75;;;18.00;99.90;;;;;;5115538;28;20028;-65
2022/06/28 06:32:37;;;;;;;;;;;18.10;99.90;;;;;;5115784;28;20033;-66
2022/06/28 06:35:03;;;;;;;3.28;1.73;;;18.20;99.90;;;;;;5114882;28;20282;-64
2022/06/28 06:37:28;;;;;;;8.23;4.43;;;18.30;99.90;;;;;;5114471;28;20028;-66
2022/06/28 06:39:54;;;;;;;4.88;1.70;;;18.40;99.90;;;;;;5114751;28;20442;-66
2022/06/28 06:42:20;;;;;;;4.45;1.63;;;18.50;99.90;;;;;;5114751;28;20030;-65
2022/06/28 06:44:45;;;;;;;1.75;1.50;;;18.60;99.90;;;;;;5114543;28;20024;-64
2022/06/28 06:47:11;;;;;;;3.72;1.48;;;18.70;99.90;;;;;;5114561;28;20134;-64
2022/06/28 06:49:36;;;;;;;1.75;1.27;;;18.90;99.90;;;;;;5114208;28;20032;-65
2022/06/28 06:52:03;;;;;;;3.30;1.50;;;19.00;99.90;;;;;;5114777;28;20396;-66
2022/06/28 06:54:28;;;;;;;9.75;1.67;;;19.10;99.90;;;;;;5113855;28;20042;-66
2022/06/28 06:56:54;;;;;;;2.63;1.48;;;19.10;99.90;;;;;;5114589;28;20310;-65
2022/06/28 06:59:19;;;;;;;4.45;1.42;;;19.20;99.90;;;;;;5114398;28;20024;-65
2022/06/28 07:01:45;;;;;;;2.90;1.20;;;19.30;99.90;;;;;;5114015;28;20063;-65
2022/06/28 07:04:11;;;;;;;2.42;1.25;;;19.40;99.90;;;;;;5114104;28;20102;-64
2022/06/28 07:06:37;;;;;;;3.55;1.30;;;19.40;99.90;;;;;;5114187;28;20384;-65
2022/06/28 07:09:03;;;;;;;3.33;1.38;;;19.50;99.90;;;;;;5113978;28;20038;-64
2022/06/28 07:11:29;;;;;;;2.60;1.30;;;19.70;99.90;;;;;;5112803;28;20079;-65
2022/06/28 07:13:55;;;;;;;4.35;1.00;;;19.80;99.90;;;;;;5114225;28;20080;-65
2022/06/28 07:16:20;;;;;;;1.90;1.00;;;19.80;99.90;;;;;;5112610;28;20395;-64
2022/06/28 07:18:46;;;;;;;2.20;1.50;;;19.80;99.90;;;;;;5113697;28;20015;-67
2022/06/28 07:21:12;;;;;;;2.97;1.38;;;19.90;99.90;;;;;;5113812;28;20487;-67
2022/06/28 07:23:38;;;;;;;3.70;1.33;;;20.00;99.90;;;;;;5114046;28;20397;-68
2022/06/28 07:26:04;;;;;;;2.25;0.90;;;20.20;99.90;;;;;;5113817;28;20366;-69
2022/06/28 07:28:29;;;;;;;;;;;20.30;99.90;;;;;;5113951;28;20468;-63
2022/06/28 07:30:55;;;;;;;2.30;0.85;;;20.50;99.90;;;;;;5113467;28;20003;-65
2022/06/28 07:33:21;;;;;;;2.47;1.20;;;20.70;99.90;;;;;;5114176;28;20027;-65
2022/06/28 07:35:47;;;;;;;3.30;1.00;;;20.70;99.90;;;;;;5113621;28;20030;-65
2022/06/28 07:38:13;;;;;;;3.33;0.95;;;20.70;99.90;;;;;;5113410;28;20440;-65
2022/06/28 07:40:39;;;;;;;1.10;0.90;;;20.80;99.90;;;;;;5113578;28;20438;-65
2022/06/28 07:43:05;;;;;;;1.48;0.77;;;20.80;99.90;;;;;;5113442;28;20019;-65
2022/06/28 07:45:31;;;;;;;1.30;0.93;;;21.00;99.90;;;;;;5113487;28;20084;-67
2022/06/28 07:47:56;;;;;;;1.55;0.80;;;21.60;99.90;;;;;;5113675;28;20024;-66
2022/06/28 07:53:07;;;;;;;3.15;1.25;;;24.20;98.50;;;;;;5113452;28;20399;-67
2022/06/28 07:55:32;;;;;;;2.53;0.90;;;25.60;95.70;;;;;;5113249;28;20023;-67
2022/06/28 07:57:59;;;;;;;1.23;0.80;;;25.80;94.70;;;;;;5113485;28;20434;-67
2022/06/28 08:00:25;;;;;;;3.53;0.90;;;25.80;93.90;;;;;;5113171;28;20046;-67
2022/06/28 08:02:51;;;;;;;2.15;0.70;;;25.00;93.90;;;;;;5113056;28;20032;-67
2022/06/28 08:05:17;;;;;;;0.85;0.73;;;24.60;94.00;;;;;;5114628;28;20391;-69
2022/06/28 08:07:43;;;;;;;1.52;0.70;;;24.00;94.50;;;;;;5117866;28;20027;-66
2022/06/28 08:10:09;;;;;;;;;;;24.50;94.80;;;;;;5118104;28;20031;-66
2022/06/28 08:12:35;;;;;;;1.98;1.42;;;25.80;93.40;;;;;;5117887;28;20241;-66
2022/06/28 08:15:01;;;;;;;2.20;0.70;;;27.80;91.10;;;;;;5118177;28;20039;-68
2022/06/28 08:17:28;;;;;;;1.88;0.60;;;28.70;86.30;;;;;;5117384;28;20030;-68
2022/06/28 08:19:53;;;;;;;2.58;0.80;;;29.90;82.50;;;;;;5118001;28;20020;-65
2022/06/28 08:22:19;;;;;;;4.60;1.50;;;30.70;78.80;;;;;;5117322;28;20030;-69
2022/06/28 08:24:45;;;;;;;1.98;0.70;;;30.30;77.80;;;;;;5117417;28;20371;-67
2022/06/28 08:27:10;;;;;;;1.42;0.80;;;30.40;76.20;;;;;;5116805;28;20030;-65
2022/06/28 08:29:36;;;;;;;2.25;0.95;;;31.10;74.30;;;;;;5118409;28;20396;-65
2022/06/28 08:32:03;;;;;;;1.58;0.85;;;32.30;71.60;;;;;;5118412;28;20062;-64
2022/06/28 08:34:29;;;;;;;2.63;1.15;;;33.40;69.30;;;;;;5117133;28;20058;-64
2022/06/28 08:36:54;;;;;;;0.98;0.88;;;33.10;68.30;;;;;;5117257;28;20055;-66
2022/06/28 08:39:20;;;;;;;1.45;0.85;;;32.80;64.00;;;;;;5116896;28;20023;-64
2022/06/28 08:41:46;;;;;;;2.33;0.68;;;33.80;64.40;;;;;;5117214;28;20054;-60
2022/06/28 08:44:14;;;;;;;2.75;0.73;;;34.20;62.50;;;;;;5116879;28;20461;-61
2022/06/28 08:46:40;;;;;;;1.55;1.00;;;34.50;63.10;;;;;;5116995;28;20038;-65
2022/06/28 08:49:23;;;;;;;1.48;0.90;;;34.40;62.90;;;;;;5117094;28;20027;-66
2022/06/28 08:51:50;;;;;;;2.67;0.77;;;33.60;59.90;;;;;;5117154;28;20031;-63
2022/06/28 08:54:18;;;;;;;2.47;0.80;;;33.60;60.30;;;;;;5117542;28;20349;-63
2022/06/28 08:56:44;;;;;;;2.67;0.98;;;33.40;60.00;;;;;;5116649;28;20027;-63
2022/06/28 08:59:11;;;;;;;2.65;0.80;;;32.80;59.10;;;;;;5116675;28;20100;-63
2022/06/28 09:01:36;;;;;;;2.05;0.60;;;32.70;59.20;;;;;;5116719;28;20034;-63
2022/06/28 09:04:03;;;;;;;1.73;0.63;;;32.60;59.40;;;;;;5117120;28;20032;-64
2022/06/28 09:06:28;;;;;;;3.40;0.95;;;33.10;59.10;;;;;;5116553;28;20369;-63
2022/06/28 09:08:54;;;;;;;2.22;1.00;;;33.30;58.90;;;;;;5116517;28;20030;-64
2022/06/28 09:11:19;;;;;;;2.47;0.80;;;34.50;58.20;;;;;;5116275;28;20031;-64
2022/06/28 09:13:46;;;;;;;2.35;1.02;;;34.30;56.80;;;;;;5116835;28;20024;-64
2022/06/28 09:16:13;;;;;;;2.17;0.63;;;34.00;57.60;;;;;;5116817;28;20345;-64
2022/06/28 09:18:38;;;;;;;2.30;1.00;;;34.90;56.60;;;;;;5116408;28;20032;-63
2022/06/28 09:21:06;;;;;;;2.75;1.05;;;35.70;55.30;;;;;;5116849;28;20123;-64
2022/06/28 09:23:34;;;;;;;1.35;0.90;;;34.80;55.90;;;;;;5117093;28;20023;-64
2022/06/28 09:26:07;;;;;;;1.50;0.88;;;35.10;55.60;;;;;;5116491;28;20051;-64
2022/06/28 09:28:35;;;;;;;2.40;0.80;;;34.60;55.20;;;;;;5116141;28;20031;-65
2022/06/28 09:31:15;;;;;;;2.90;0.90;;;35.10;54.80;;;;;;5118193;28;20028;-66
2022/06/28 09:33:46;;;;;;;2.90;0.98;;;36.20;54.80;;;;;;5116769;28;20525;-67
2022/06/28 09:36:14;;;;;;;2.17;0.90;;;36.60;52.70;;;;;;5116535;28;20104;-63
2022/06/28 09:38:40;;;;;;;3.88;1.13;;;36.90;52.20;;;;;;5116325;28;20035;-64
2022/06/28 09:41:19;;;;;;;4.78;0.90;;;36.30;53.20;;;;;;5118714;28;20433;-64
2022/06/28 09:43:56;;;;;;;1.95;0.70;;;37.40;52.40;;;;;;5118437;28;20035;-64
2022/06/28 09:46:23;;;;;;;2.28;0.80;;;37.30;51.50;;;;;;5117205;28;20024;-65
2022/06/28 09:48:51;;;;;;;1.67;0.70;;;36.70;50.80;;;;;;5117358;28;20028;-65
2022/06/28 09:51:23;;;;;;;2.45;0.90;;;35.10;52.50;;;;;;5117398;28;20053;-63
2022/06/28 09:53:52;;;;;;;2.78;1.00;;;35.10;53.40;;;;;;5116100;28;20023;-62
2022/06/28 09:56:21;;;;;;;2.85;0.80;;;36.00;52.10;;;;;;5116981;28;20055;-63
2022/06/28 09:58:48;;;;;;;1.05;0.80;;;36.60;51.80;;;;;;5117375;28;20434;-62
2022/06/28 10:01:14;;;;;;;3.08;0.90;;;34.80;51.40;;;;;;5115694;28;20027;-63
2022/06/28 10:03:40;;;;;;;3.00;1.13;;;34.00;52.50;;;;;;5115707;28;20027;-64
2022/06/28 10:06:06;;;;;;;2.03;1.13;;;34.10;52.70;;;;;;5116272;28;20030;-64
2022/06/28 10:08:33;;;;;;;3.70;0.95;;;33.20;53.10;;;;;;5116041;28;20020;-65
2022/06/28 10:10:59;;;;;;;2.30;1.00;;;33.90;53.60;;;;;;5115861;28;20027;-65
2022/06/28 10:16:41;;;;;;;2.35;0.82;;;34.00;54.30;;;;;;5116433;28;20096;-64
2022/06/28 10:19:07;;;;;;;3.35;1.50;;;35.20;52.30;;;;;;5117098;28;20101;-66
2022/06/28 10:21:46;;;;;;;2.05;0.80;;;34.60;52.30;;;;;;5116697;28;20020;-65
2022/06/28 10:24:13;;;;;;;2.35;0.82;;;35.30;51.90;;;;;;5116002;28;20024;-66
2022/06/28 10:26:43;;;;;;;1.17;0.70;;;34.00;53.60;;;;;;5115391;28;20079;-66
2022/06/28 10:29:09;;;;;;;2.05;1.00;;;33.70;53.60;;;;;;5115316;28;20447;-64
2022/06/28 10:31:41;;;;;;;3.33;1.10;;;34.70;54.10;;;;;;5115919;28;20027;-64
2022/06/28 10:34:10;;;;;;;2.53;1.00;;;35.70;52.80;;;;;;5115735;28;20525;-66
2022/06/28 10:36:47;;;;;;;1.20;0.80;;;36.00;52.00;;;;;;5115383;28;20469;-66
2022/06/28 10:39:19;;;;;;;1.20;0.77;;;35.80;51.50;;;;;;5115814;28;20020;-66
2022/06/28 10:41:46;;;;;;;2.28;1.42;;;35.00;52.30;;;;;;5115707;28;20024;-66
2022/06/28 10:44:18;;;;;;;4.95;0.68;;;35.30;51.90;;;;;;5115684;28;20070;-66
2022/06/28 10:47:04;;;;;;;2.50;0.98;;;35.20;52.70;;;;;;5115211;28;20164;-66
2022/06/28 10:49:52;;;;;;;1.90;0.90;;;35.90;52.40;;;;;;5116721;28;20340;-66
2022/06/28 10:52:32;;;;;;;1.70;0.70;;;35.10;52.50;;;;;;5116657;28;20533;-66
2022/06/28 10:54:58;;;;;;;1.65;1.00;;;35.70;52.50;;;;;;5116951;28;20141;-66
2022/06/28 10:57:33;;;;;;;4.30;1.00;;;36.10;51.30;;;;;;5116815;28;20106;-65
2022/06/28 11:00:08;;;;;;;4.63;0.90;;;36.20;51.30;;;;;;5116843;28;20023;-65
2022/06/28 11:02:59;;;;;;;2.95;0.80;;;36.40;51.40;;;;;;5116679;28;20373;-66
2022/06/28 11:05:52;;;;;;;1.55;0.73;;;35.20;51.10;;;;;;5116378;28;20385;-63
2022/06/28 11:08:43;;;;;;;2.67;0.90;;;33.50;52.90;;;;;;5116640;28;20107;-62
2022/06/28 11:11:08;;;;;;;2.75;0.85;;;32.90;53.90;;;;;;5116835;28;20102;-63
2022/06/28 11:13:34;;;;;;;1.30;0.80;;;32.50;54.00;;;;;;5115008;28;20456;-63
2022/06/28 11:16:00;;;;;;;1.02;0.60;;;31.00;56.00;;;;;;5114897;28;20095;-62
2022/06/28 11:18:26;;;;;;;3.80;1.10;;;29.70;57.50;;;;;;5116242;28;20349;-64
2022/06/28 11:20:52;;;;;;;2.00;0.73;;;29.30;58.30;;;;;;5114002;28;20108;-63
2022/06/28 11:23:22;;;;;;;2.58;0.88;;;29.00;59.00;;;;;;5114423;28;20657;-64
2022/06/28 11:28:32;;;;;;;3.00;1.00;;;27.70;60.90;;;;;;5114918;28;20499;-65
2022/06/28 11:30:57;;;;;;;2.70;0.80;;;26.90;61.80;;;;;;5112649;28;20031;-66
2022/06/28 11:33:32;;;;;;;2.47;0.82;;;27.00;62.70;;;;;;5114313;28;20019;-67
2022/06/28 11:36:01;;;;;;;0.75;0.65;;;26.90;62.90;;;;;;5115228;28;20380;-67
2022/06/28 11:38:27;;;;;;;2.75;0.80;;;26.40;63.80;;;;;;5115667;28;20016;-67
2022/06/28 11:40:54;;;;;;;2.72;0.77;;;26.30;64.30;;;;;;5114022;28;20353;-68
2022/06/28 11:43:27;;;;;;;1.90;0.80;;;26.20;63.70;;;;;;5113940;28;20040;-65
2022/06/28 11:45:54;;;;;;;2.90;0.90;;;26.20;64.60;;;;;;5114940;28;20405;-67
2022/06/28 11:48:28;;;;;;;2.53;0.85;;;26.20;64.40;;;;;;5113318;28;20023;-65
2022/06/28 11:50:56;;;;;;;2.47;0.88;;;26.10;64.70;;;;;;5115710;28;20047;-69
2022/06/28 11:53:23;;;;;;;1.25;0.82;;;26.10;64.00;;;;;;5114739;28;20024;-69
2022/06/28 11:55:54;;;;;;;1.65;0.85;;;26.10;64.60;;;;;;5115739;28;20059;-67
2022/06/28 11:58:30;;;;;;;2.05;0.70;;;25.70;64.50;;;;;;5114432;28;20391;-68
2022/06/28 12:01:03;;;;;;;3.03;0.77;;;25.70;64.50;;;;;;5114164;28;20099;-69
2022/06/28 12:03:29;;;;;;;3.83;0.70;;;25.80;64.70;;;;;;5113597;28;20273;-66
2022/06/28 12:06:00;;;;;;;4.40;1.20;;;25.70;65.10;;;;;;5113959;28;20036;-68
2022/06/28 12:08:46;;;;;;;3.38;1.23;;;25.70;65.10;;;;;;5114257;28;20103;-68
2022/06/28 12:11:39;;;;;;;2.13;0.90;;;25.70;64.80;;;;;;5114812;28;20027;-66
2022/06/28 12:14:06;;;;;;;0.98;0.63;;;25.70;65.20;;;;;;5113687;28;20380;-69
2022/06/28 12:16:38;;;;;;;1.70;0.85;;;25.90;65.50;;;;;;5113037;28;20079;-69
2022/06/28 12:19:07;;;;;;;3.33;0.77;;;25.90;65.00;;;;;;5113347;28;20039;-68
2022/06/28 12:21:33;;;;;;;1.20;0.60;;;25.80;65.20;;;;;;5111919;28;20392;-69
2022/06/28 12:23:58;;;;;;;;;;;25.70;64.80;;;;;;5114607;28;20027;-71
2022/06/28 12:26:41;;;;;;;2.63;0.80;;;25.80;65.00;;;;;;5112748;28;20002;-71
2022/06/28 12:29:07;;;;;;;0.68;0.50;;;25.80;65.20;;;;;;5115620;28;20445;-70
2022/06/28 12:31:33;;;;;;;2.17;0.77;;;25.80;64.60;;;;;;5114186;28;20020;-70
2022/06/28 12:34:03;;;;;;;;;;;25.70;64.60;;;;;;5114297;28;20533;-66
2022/06/28 12:36:29;;;;;;;2.97;0.70;;;25.70;64.30;;;;;;5113341;28;20438;-68
2022/06/28 12:38:54;;;;;;;;;;;25.90;65.30;;;;;;5114620;28;20106;-67
2022/06/28 12:41:20;;;;;;;2.75;1.00;;;26.10;63.70;;;;;;5113674;28;19942;-67
2022/06/28 12:43:45;;;;;;;3.22;0.75;;;26.20;64.50;;;;;;5113114;28;20079;-66
2022/06/28 12:46:11;;;;;;;1.90;0.82;;;26.30;64.20;;;;;;5112930;28;20138;-66
2022/06/28 12:48:37;;;;;;;;;;;26.20;64.10;;;;;;5113225;28;20020;-67
2022/06/28 12:51:02;;;;;;;3.35;1.00;;;26.40;63.90;;;;;;5113024;28;19904;-67
2022/06/28 12:53:28;;;;;;;1.10;0.93;;;26.60;64.00;;;;;;5115938;28;20028;-67
2022/06/28 12:55:53;;;;;;;2.78;0.70;;;26.70;64.20;;;;;;5116881;28;20027;-68
2022/06/28 12:58:19;;;;;;;3.97;0.73;;;26.80;62.90;;;;;;5115376;28;20377;-71
2022/06/28 13:00:44;;;;;;;;;;;26.40;62.50;;;;;;5116027;28;20510;-72
2022/06/28 13:03:10;;;;;;;1.85;0.68;;;26.30;62.60;;;;;;5115487;28;20375;-72
2022/06/28 13:05:37;;;;;;;1.27;0.80;;;26.20;62.60;;;;;;5117595;28;20034;-71